ADDS TAF Data INFO
IDs: Format: Raw Decoded Include METARs

Data at: 0759 UTC 22 Sep 2017

TAF ETSI 220415Z 2205/2214 VRB01KT 0100 FG SCT001 SCT200
  BECMG 2205/2207 VRB02KT 0800 FG SCT002 SCT200
  BECMG 2207/2209 VRB03KT 9999 NSW SCT030 BKN200